sensor_id;sensor_type;location;lat;lon;timestamp;P1;durP1;ratioP1;P2;durP2;ratioP2
16856;SDS011;8544;51.312;12.276;2022-07-26T00:02:12;2.80;;;2.80;;
16856;SDS011;8544;51.312;12.276;2022-07-26T00:04:43;2.93;;;2.90;;
16856;SDS011;8544;51.312;12.276;2022-07-26T00:07:11;3.10;;;2.93;;
16856;SDS011;8544;51.312;12.276;2022-07-26T00:09:40;3.23;;;3.17;;
16856;SDS011;8544;51.312;12.276;2022-07-26T00:12:13;3.13;;;3.03;;
16856;SDS011;8544;51.312;12.276;2022-07-26T00:14:42;3.07;;;3.07;;
16856;SDS011;8544;51.312;12.276;2022-07-26T00:17:09;3.63;;;3.53;;
16856;SDS011;8544;51.312;12.276;2022-07-26T00:19:37;2.53;;;2.53;;
16856;SDS011;8544;51.312;12.276;2022-07-26T00:22:06;19.93;;;3.73;;
16856;SDS011;8544;51.312;12.276;2022-07-26T00:24:52;3.47;;;3.27;;
16856;SDS011;8544;51.312;12.276;2022-07-26T00:27:20;2.47;;;2.47;;
16856;SDS011;8544;51.312;12.276;2022-07-26T00:29:50;3.00;;;3.00;;
16856;SDS011;8544;51.312;12.276;2022-07-26T00:32:18;3.03;;;2.90;;
16856;SDS011;8544;51.312;12.276;2022-07-26T00:34:47;3.43;;;3.33;;
16856;SDS011;8544;51.312;12.276;2022-07-26T00:37:17;2.83;;;2.83;;
16856;SDS011;8544;51.312;12.276;2022-07-26T00:39:46;2.80;;;2.70;;
16856;SDS011;8544;51.312;12.276;2022-07-26T00:42:15;3.97;;;3.70;;
16856;SDS011;8544;51.312;12.276;2022-07-26T00:44:44;3.20;;;3.17;;
16856;SDS011;8544;51.312;12.276;2022-07-26T00:47:13;3.80;;;3.70;;
16856;SDS011;8544;51.312;12.276;2022-07-26T00:49:41;3.00;;;3.00;;
16856;SDS011;8544;51.312;12.276;2022-07-26T00:52:10;3.30;;;3.17;;
16856;SDS011;8544;51.312;12.276;2022-07-26T00:54:38;3.70;;;3.60;;
16856;SDS011;8544;51.312;12.276;2022-07-26T00:57:09;2.83;;;2.83;;
16856;SDS011;8544;51.312;12.276;2022-07-26T00:59:38;3.53;;;3.43;;
16856;SDS011;8544;51.312;12.276;2022-07-26T01:02:07;4.30;;;3.43;;
16856;SDS011;8544;51.312;12.276;2022-07-26T01:04:36;2.70;;;2.70;;
16856;SDS011;8544;51.312;12.276;2022-07-26T01:07:04;3.80;;;2.87;;
16856;SDS011;8544;51.312;12.276;2022-07-26T01:09:40;2.97;;;2.97;;
16856;SDS011;8544;51.312;12.276;2022-07-26T01:12:09;3.37;;;3.23;;
16856;SDS011;8544;51.312;12.276;2022-07-26T01:14:42;3.00;;;2.90;;
16856;SDS011;8544;51.312;12.276;2022-07-26T01:17:10;2.17;;;2.17;;
16856;SDS011;8544;51.312;12.276;2022-07-26T01:19:38;2.63;;;2.63;;
16856;SDS011;8544;51.312;12.276;2022-07-26T01:22:08;2.60;;;2.50;;
16856;SDS011;8544;51.312;12.276;2022-07-26T01:24:40;2.30;;;2.30;;
16856;SDS011;8544;51.312;12.276;2022-07-26T01:27:08;2.47;;;2.47;;
16856;SDS011;8544;51.312;12.276;2022-07-26T01:29:36;2.33;;;2.33;;
16856;SDS011;8544;51.312;12.276;2022-07-26T01:32:04;2.80;;;2.70;;
16856;SDS011;8544;51.312;12.276;2022-07-26T01:34:33;3.10;;;3.10;;
16856;SDS011;8544;51.312;12.276;2022-07-26T01:37:01;4.50;;;4.30;;
16856;SDS011;8544;51.312;12.276;2022-07-26T01:39:32;2.90;;;2.80;;
16856;SDS011;8544;51.312;12.276;2022-07-26T01:42:00;2.97;;;2.87;;
16856;SDS011;8544;51.312;12.276;2022-07-26T01:44:28;2.17;;;2.17;;
16856;SDS011;8544;51.312;12.276;2022-07-26T01:46:56;2.33;;;2.33;;
16856;SDS011;8544;51.312;12.276;2022-07-26T01:49:24;3.10;;;3.00;;
16856;SDS011;8544;51.312;12.276;2022-07-26T01:51:52;2.80;;;2.80;;
16856;SDS011;8544;51.312;12.276;2022-07-26T01:54:20;2.80;;;2.80;;
16856;SDS011;8544;51.312;12.276;2022-07-26T01:56:51;2.70;;;2.70;;
16856;SDS011;8544;51.312;12.276;2022-07-26T01:59:19;3.77;;;3.57;;
16856;SDS011;8544;51.312;12.276;2022-07-26T02:01:47;2.90;;;2.80;;
16856;SDS011;8544;51.312;12.276;2022-07-26T02:04:15;2.40;;;2.40;;
16856;SDS011;8544;51.312;12.276;2022-07-26T02:06:57;2.80;;;2.80;;
16856;SDS011;8544;51.312;12.276;2022-07-26T02:09:24;3.57;;;3.30;;
16856;SDS011;8544;51.312;12.276;2022-07-26T02:11:58;4.77;;;4.63;;
16856;SDS011;8544;51.312;12.276;2022-07-26T02:14:26;2.50;;;2.50;;
16856;SDS011;8544;51.312;12.276;2022-07-26T02:16:54;3.73;;;3.43;;
16856;SDS011;8544;51.312;12.276;2022-07-26T02:19:25;3.23;;;3.13;;
16856;SDS011;8544;51.312;12.276;2022-07-26T02:21:53;4.90;;;3.60;;
16856;SDS011;8544;51.312;12.276;2022-07-26T02:24:21;2.73;;;2.73;;
16856;SDS011;8544;51.312;12.276;2022-07-26T02:26:50;3.50;;;3.40;;
16856;SDS011;8544;51.312;12.276;2022-07-26T02:29:19;3.97;;;3.70;;
16856;SDS011;8544;51.312;12.276;2022-07-26T02:31:47;2.20;;;2.20;;
16856;SDS011;8544;51.312;12.276;2022-07-26T02:34:15;4.23;;;4.03;;
16856;SDS011;8544;51.312;12.276;2022-07-26T02:36:43;2.33;;;2.33;;
16856;SDS011;8544;51.312;12.276;2022-07-26T02:39:11;2.20;;;2.20;;
16856;SDS011;8544;51.312;12.276;2022-07-26T02:41:39;2.50;;;2.40;;
16856;SDS011;8544;51.312;12.276;2022-07-26T02:44:07;2.20;;;2.20;;
16856;SDS011;8544;51.312;12.276;2022-07-26T02:46:38;2.60;;;2.60;;
16856;SDS011;8544;51.312;12.276;2022-07-26T02:49:06;2.60;;;2.57;;
16856;SDS011;8544;51.312;12.276;2022-07-26T02:51:34;2.70;;;2.70;;
16856;SDS011;8544;51.312;12.276;2022-07-26T02:54:01;3.33;;;3.33;;
16856;SDS011;8544;51.312;12.276;2022-07-26T02:56:29;3.57;;;3.37;;
16856;SDS011;8544;51.312;12.276;2022-07-26T02:58:58;2.77;;;2.63;;
16856;SDS011;8544;51.312;12.276;2022-07-26T03:01:25;2.53;;;2.53;;
16856;SDS011;8544;51.312;12.276;2022-07-26T03:03:55;2.80;;;2.80;;
16856;SDS011;8544;51.312;12.276;2022-07-26T03:06:23;3.40;;;3.20;;
16856;SDS011;8544;51.312;12.276;2022-07-26T03:08:51;3.27;;;3.27;;
16856;SDS011;8544;51.312;12.276;2022-07-26T03:11:19;5.30;;;5.10;;
16856;SDS011;8544;51.312;12.276;2022-07-26T03:13:46;2.60;;;2.50;;
16856;SDS011;8544;51.312;12.276;2022-07-26T03:16:14;2.30;;;2.30;;
16856;SDS011;8544;51.312;12.276;2022-07-26T03:18:47;2.60;;;2.60;;
16856;SDS011;8544;51.312;12.276;2022-07-26T03:21:17;2.43;;;2.43;;
16856;SDS011;8544;51.312;12.276;2022-07-26T03:23:45;2.33;;;2.33;;
16856;SDS011;8544;51.312;12.276;2022-07-26T03:26:13;7.83;;;3.37;;
16856;SDS011;8544;51.312;12.276;2022-07-26T03:28:41;2.43;;;2.43;;
16856;SDS011;8544;51.312;12.276;2022-07-26T03:31:09;2.40;;;2.40;;
16856;SDS011;8544;51.312;12.276;2022-07-26T03:33:38;3.27;;;2.97;;
16856;SDS011;8544;51.312;12.276;2022-07-26T03:36:06;2.60;;;2.60;;
16856;SDS011;8544;51.312;12.276;2022-07-26T03:38:39;12.63;;;2.77;;
16856;SDS011;8544;51.312;12.276;2022-07-26T03:41:07;2.33;;;2.33;;
16856;SDS011;8544;51.312;12.276;2022-07-26T03:43:39;2.23;;;2.13;;
16856;SDS011;8544;51.312;12.276;2022-07-26T03:46:07;2.30;;;2.30;;
16856;SDS011;8544;51.312;12.276;2022-07-26T03:48:35;2.73;;;2.63;;
16856;SDS011;8544;51.312;12.276;2022-07-26T03:51:03;1.90;;;1.90;;
16856;SDS011;8544;51.312;12.276;2022-07-26T03:53:31;3.00;;;2.90;;
16856;SDS011;8544;51.312;12.276;2022-07-26T03:56:01;3.70;;;2.70;;
16856;SDS011;8544;51.312;12.276;2022-07-26T03:58:47;3.00;;;2.80;;
16856;SDS011;8544;51.312;12.276;2022-07-26T04:01:15;2.40;;;2.40;;
16856;SDS011;8544;51.312;12.276;2022-07-26T04:03:43;3.53;;;3.37;;
16856;SDS011;8544;51.312;12.276;2022-07-26T04:06:13;2.57;;;2.57;;
16856;SDS011;8544;51.312;12.276;2022-07-26T04:08:42;2.70;;;2.70;;
16856;SDS011;8544;51.312;12.276;2022-07-26T04:11:12;2.53;;;2.47;;
16856;SDS011;8544;51.312;12.276;2022-07-26T04:13:40;2.27;;;2.27;;
16856;SDS011;8544;51.312;12.276;2022-07-26T04:16:08;2.60;;;2.60;;
16856;SDS011;8544;51.312;12.276;2022-07-26T04:18:36;2.27;;;2.27;;
16856;SDS011;8544;51.312;12.276;2022-07-26T04:21:04;2.37;;;2.30;;
16856;SDS011;8544;51.312;12.276;2022-07-26T04:23:32;2.87;;;2.83;;
16856;SDS011;8544;51.312;12.276;2022-07-26T04:26:00;2.47;;;2.47;;
16856;SDS011;8544;51.312;12.276;2022-07-26T04:28:29;6.17;;;5.97;;
16856;SDS011;8544;51.312;12.276;2022-07-26T04:30:58;2.50;;;2.40;;
16856;SDS011;8544;51.312;12.276;2022-07-26T04:33:26;2.60;;;2.40;;
16856;SDS011;8544;51.312;12.276;2022-07-26T04:35:54;2.67;;;2.67;;
16856;SDS011;8544;51.312;12.276;2022-07-26T04:38:22;8.33;;;8.03;;
16856;SDS011;8544;51.312;12.276;2022-07-26T04:40:50;3.37;;;3.20;;
16856;SDS011;8544;51.312;12.276;2022-07-26T04:43:18;2.40;;;2.40;;
16856;SDS011;8544;51.312;12.276;2022-07-26T04:45:47;3.10;;;3.00;;
16856;SDS011;8544;51.312;12.276;2022-07-26T04:48:16;2.67;;;2.67;;
16856;SDS011;8544;51.312;12.276;2022-07-26T04:50:43;2.50;;;2.50;;
16856;SDS011;8544;51.312;12.276;2022-07-26T04:53:11;2.47;;;2.47;;
16856;SDS011;8544;51.312;12.276;2022-07-26T04:55:39;2.10;;;2.10;;
16856;SDS011;8544;51.312;12.276;2022-07-26T04:58:08;3.17;;;2.97;;
16856;SDS011;8544;51.312;12.276;2022-07-26T05:00:36;3.90;;;3.70;;
16856;SDS011;8544;51.312;12.276;2022-07-26T05:03:26;3.47;;;3.27;;
16856;SDS011;8544;51.312;12.276;2022-07-26T05:05:54;2.60;;;2.60;;
16856;SDS011;8544;51.312;12.276;2022-07-26T05:08:23;3.17;;;3.17;;
16856;SDS011;8544;51.312;12.276;2022-07-26T05:10:51;3.40;;;3.30;;
16856;SDS011;8544;51.312;12.276;2022-07-26T05:13:21;3.20;;;3.10;;
16856;SDS011;8544;51.312;12.276;2022-07-26T05:15:56;3.90;;;3.80;;
16856;SDS011;8544;51.312;12.276;2022-07-26T05:18:24;3.97;;;3.87;;
16856;SDS011;8544;51.312;12.276;2022-07-26T05:20:56;5.07;;;4.67;;
16856;SDS011;8544;51.312;12.276;2022-07-26T05:23:24;7.13;;;6.73;;
16856;SDS011;8544;51.312;12.276;2022-07-26T05:25:51;8.83;;;6.07;;
16856;SDS011;8544;51.312;12.276;2022-07-26T05:28:20;4.87;;;4.77;;
16856;SDS011;8544;51.312;12.276;2022-07-26T05:30:48;39.40;;;3.90;;
16856;SDS011;8544;51.312;12.276;2022-07-26T05:33:16;3.40;;;3.30;;
16856;SDS011;8544;51.312;12.276;2022-07-26T05:35:44;4.67;;;4.00;;
16856;SDS011;8544;51.312;12.276;2022-07-26T05:38:14;3.20;;;3.20;;
16856;SDS011;8544;51.312;12.276;2022-07-26T05:40:42;3.93;;;3.73;;
16856;SDS011;8544;51.312;12.276;2022-07-26T05:43:15;3.30;;;3.20;;
16856;SDS011;8544;51.312;12.276;2022-07-26T05:45:43;2.77;;;2.77;;
16856;SDS011;8544;51.312;12.276;2022-07-26T05:48:11;3.40;;;3.37;;
16856;SDS011;8544;51.312;12.276;2022-07-26T05:50:39;4.10;;;3.90;;
16856;SDS011;8544;51.312;12.276;2022-07-26T05:53:07;3.20;;;3.10;;
16856;SDS011;8544;51.312;12.276;2022-07-26T05:55:36;4.13;;;4.03;;
16856;SDS011;8544;51.312;12.276;2022-07-26T05:58:04;3.10;;;3.10;;
16856;SDS011;8544;51.312;12.276;2022-07-26T06:00:33;3.90;;;3.80;;
16856;SDS011;8544;51.312;12.276;2022-07-26T06:03:01;3.27;;;3.17;;
16856;SDS011;8544;51.312;12.276;2022-07-26T06:05:47;3.70;;;3.60;;
16856;SDS011;8544;51.312;12.276;2022-07-26T06:08:16;3.10;;;3.10;;
16856;SDS011;8544;51.312;12.276;2022-07-26T06:10:46;3.23;;;3.23;;
16856;SDS011;8544;51.312;12.276;2022-07-26T06:13:14;3.13;;;3.13;;
16856;SDS011;8544;51.312;12.276;2022-07-26T06:15:43;4.73;;;4.53;;
16856;SDS011;8544;51.312;12.276;2022-07-26T06:18:12;2.70;;;2.70;;
16856;SDS011;8544;51.312;12.276;2022-07-26T06:20:40;2.20;;;2.20;;
16856;SDS011;8544;51.312;12.276;2022-07-26T06:23:09;9.00;;;4.70;;
16856;SDS011;8544;51.312;12.276;2022-07-26T06:25:38;2.80;;;2.80;;
16856;SDS011;8544;51.312;12.276;2022-07-26T06:28:09;10.37;;;4.10;;
16856;SDS011;8544;51.312;12.276;2022-07-26T06:30:38;3.60;;;3.57;;
16856;SDS011;8544;51.312;12.276;2022-07-26T06:33:06;3.30;;;3.30;;
16856;SDS011;8544;51.312;12.276;2022-07-26T06:35:34;4.20;;;4.10;;
16856;SDS011;8544;51.312;12.276;2022-07-26T06:38:04;27.17;;;25.73;;
16856;SDS011;8544;51.312;12.276;2022-07-26T06:40:33;52.60;;;18.13;;
16856;SDS011;8544;51.312;12.276;2022-07-26T06:43:02;3.20;;;3.20;;
16856;SDS011;8544;51.312;12.276;2022-07-26T06:45:31;2.70;;;2.70;;
16856;SDS011;8544;51.312;12.276;2022-07-26T06:48:00;3.27;;;3.27;;
16856;SDS011;8544;51.312;12.276;2022-07-26T06:50:28;4.80;;;4.63;;
16856;SDS011;8544;51.312;12.276;2022-07-26T06:52:56;4.30;;;4.20;;
16856;SDS011;8544;51.312;12.276;2022-07-26T06:55:24;12.17;;;11.67;;
16856;SDS011;8544;51.312;12.276;2022-07-26T06:57:52;12.63;;;12.10;;
16856;SDS011;8544;51.312;12.276;2022-07-26T07:00:20;21.17;;;19.73;;
16856;SDS011;8544;51.312;12.276;2022-07-26T07:02:49;19.27;;;17.40;;
16856;SDS011;8544;51.312;12.276;2022-07-26T07:05:18;15.50;;;14.80;;
16856;SDS011;8544;51.312;12.276;2022-07-26T07:07:46;14.43;;;13.80;;
16856;SDS011;8544;51.312;12.276;2022-07-26T07:10:14;21.10;;;20.10;;
16856;SDS011;8544;51.312;12.276;2022-07-26T07:12:45;80.85;;;76.43;;
16856;SDS011;8544;51.312;12.276;2022-07-26T07:15:13;32.95;;;31.27;;
16856;SDS011;8544;51.312;12.276;2022-07-26T07:17:41;34.13;;;32.35;;
16856;SDS011;8544;51.312;12.276;2022-07-26T07:20:12;41.17;;;38.97;;
16856;SDS011;8544;51.312;12.276;2022-07-26T07:22:40;67.07;;;63.45;;
16856;SDS011;8544;51.312;12.276;2022-07-26T07:25:08;63.05;;;59.40;;
16856;SDS011;8544;51.312;12.276;2022-07-26T07:27:40;76.93;;;72.80;;
16856;SDS011;8544;51.312;12.276;2022-07-26T07:30:08;83.30;;;78.85;;
16856;SDS011;8544;51.312;12.276;2022-07-26T07:32:37;50.88;;;48.13;;
16856;SDS011;8544;51.312;12.276;2022-07-26T07:35:06;36.15;;;34.25;;
16856;SDS011;8544;51.312;12.276;2022-07-26T07:37:39;35.17;;;33.35;;
16856;SDS011;8544;51.312;12.276;2022-07-26T07:40:19;30.85;;;29.27;;
16856;SDS011;8544;51.312;12.276;2022-07-26T07:42:48;33.28;;;31.58;;
16856;SDS011;8544;51.312;12.276;2022-07-26T07:45:15;30.80;;;29.23;;
16856;SDS011;8544;51.312;12.276;2022-07-26T07:47:44;40.13;;;38.03;;
16856;SDS011;8544;51.312;12.276;2022-07-26T07:50:12;38.20;;;36.05;;
16856;SDS011;8544;51.312;12.276;2022-07-26T07:52:44;40.28;;;37.97;;
16856;SDS011;8544;51.312;12.276;2022-07-26T07:55:13;32.13;;;30.50;;
16856;SDS011;8544;51.312;12.276;2022-07-26T07:58:00;61.08;;;57.78;;
16856;SDS011;8544;51.312;12.276;2022-07-26T08:00:28;78.47;;;73.38;;
16856;SDS011;8544;51.312;12.276;2022-07-26T08:02:56;55.53;;;52.50;;
16856;SDS011;8544;51.312;12.276;2022-07-26T08:05:24;87.85;;;83.10;;
16856;SDS011;8544;51.312;12.276;2022-07-26T08:07:53;108.15;;;97.10;;
16856;SDS011;8544;51.312;12.276;2022-07-26T08:10:22;75.68;;;71.57;;
16856;SDS011;8544;51.312;12.276;2022-07-26T08:12:49;88.13;;;83.40;;
16856;SDS011;8544;51.312;12.276;2022-07-26T08:15:18;87.65;;;80.85;;
16856;SDS011;8544;51.312;12.276;2022-07-26T08:17:47;110.90;;;105.00;;
16856;SDS011;8544;51.312;12.276;2022-07-26T08:20:20;93.38;;;87.97;;
16856;SDS011;8544;51.312;12.276;2022-07-26T08:22:50;172.32;;;162.98;;
16856;SDS011;8544;51.312;12.276;2022-07-26T08:25:20;97.07;;;91.93;;
16856;SDS011;8544;51.312;12.276;2022-07-26T08:27:48;112.60;;;106.53;;
16856;SDS011;8544;51.312;12.276;2022-07-26T08:30:36;86.28;;;81.65;;
16856;SDS011;8544;51.312;12.276;2022-07-26T08:33:03;123.20;;;116.53;;
16856;SDS011;8544;51.312;12.276;2022-07-26T08:35:31;86.47;;;81.88;;
16856;SDS011;8544;51.312;12.276;2022-07-26T08:37:59;77.95;;;73.75;;
16856;SDS011;8544;51.312;12.276;2022-07-26T08:40:28;70.28;;;66.45;;
16856;SDS011;8544;51.312;12.276;2022-07-26T08:42:56;66.38;;;62.75;;
16856;SDS011;8544;51.312;12.276;2022-07-26T08:45:25;78.22;;;74.00;;
16856;SDS011;8544;51.312;12.276;2022-07-26T08:47:56;38.28;;;36.28;;
16856;SDS011;8544;51.312;12.276;2022-07-26T08:50:44;50.75;;;48.03;;
16856;SDS011;8544;51.312;12.276;2022-07-26T08:53:12;35.28;;;33.47;;
16856;SDS011;8544;51.312;12.276;2022-07-26T08:55:41;55.35;;;52.35;;
16856;SDS011;8544;51.312;12.276;2022-07-26T08:58:30;72.93;;;68.97;;
16856;SDS011;8544;51.312;12.276;2022-07-26T09:01:03;80.10;;;75.75;;
16856;SDS011;8544;51.312;12.276;2022-07-26T09:03:32;112.43;;;106.25;;
16856;SDS011;8544;51.312;12.276;2022-07-26T09:06:10;77.30;;;73.15;;
16856;SDS011;8544;51.312;12.276;2022-07-26T09:08:39;76.38;;;72.20;;
16856;SDS011;8544;51.312;12.276;2022-07-26T09:13:58;83.03;;;78.53;;
16856;SDS011;8544;51.312;12.276;2022-07-26T09:16:27;66.18;;;62.60;;
16856;SDS011;8544;51.312;12.276;2022-07-26T09:19:13;61.03;;;57.63;;
16856;SDS011;8544;51.312;12.276;2022-07-26T09:21:44;64.03;;;60.53;;
16856;SDS011;8544;51.312;12.276;2022-07-26T09:24:12;71.57;;;67.63;;
16856;SDS011;8544;51.312;12.276;2022-07-26T09:27:00;75.93;;;71.78;;
16856;SDS011;8544;51.312;12.276;2022-07-26T09:29:40;82.22;;;77.65;;
16856;SDS011;8544;51.312;12.276;2022-07-26T09:32:13;58.97;;;55.78;;
16856;SDS011;8544;51.312;12.276;2022-07-26T09:34:44;72.93;;;68.97;;
16856;SDS011;8544;51.312;12.276;2022-07-26T09:37:31;66.18;;;62.47;;
16856;SDS011;8544;51.312;12.276;2022-07-26T09:40:00;84.15;;;79.65;;
16856;SDS011;8544;51.312;12.276;2022-07-26T09:42:33;71.53;;;67.63;;
16856;SDS011;8544;51.312;12.276;2022-07-26T09:45:01;65.28;;;61.70;;
16856;SDS011;8544;51.312;12.276;2022-07-26T09:47:41;155.73;;;147.18;;
16856;SDS011;8544;51.312;12.276;2022-07-26T09:50:09;256.88;;;243.48;;
16856;SDS011;8544;51.312;12.276;2022-07-26T09:52:39;286.73;;;271.85;;
16856;SDS011;8544;51.312;12.276;2022-07-26T09:55:23;256.30;;;242.93;;
16856;SDS011;8544;51.312;12.276;2022-07-26T09:57:53;90.80;;;85.95;;
16856;SDS011;8544;51.312;12.276;2022-07-26T10:00:21;58.38;;;55.03;;
16856;SDS011;8544;51.312;12.276;2022-07-26T10:02:51;56.72;;;53.63;;
16856;SDS011;8544;51.312;12.276;2022-07-26T10:05:19;50.60;;;47.88;;
16856;SDS011;8544;51.312;12.276;2022-07-26T10:07:48;69.28;;;65.45;;
16856;SDS011;8544;51.312;12.276;2022-07-26T10:10:18;49.05;;;46.42;;
16856;SDS011;8544;51.312;12.276;2022-07-26T10:12:50;57.70;;;54.55;;
16856;SDS011;8544;51.312;12.276;2022-07-26T10:15:37;85.28;;;80.70;;
16856;SDS011;8544;51.312;12.276;2022-07-26T10:18:08;65.78;;;62.22;;
16856;SDS011;8544;51.312;12.276;2022-07-26T10:20:46;149.75;;;141.60;;
16856;SDS011;8544;51.312;12.276;2022-07-26T10:23:31;137.77;;;128.75;;
16856;SDS011;8544;51.312;12.276;2022-07-26T10:26:04;81.18;;;76.78;;
16856;SDS011;8544;51.312;12.276;2022-07-26T10:28:36;78.38;;;74.15;;
16856;SDS011;8544;51.312;12.276;2022-07-26T10:31:28;99.47;;;94.18;;
16856;SDS011;8544;51.312;12.276;2022-07-26T10:33:58;325.55;;;197.35;;
16856;SDS011;8544;51.312;12.276;2022-07-26T10:36:33;71.68;;;67.80;;
16856;SDS011;8544;51.312;12.276;2022-07-26T10:39:09;175.23;;;63.20;;
16856;SDS011;8544;51.312;12.276;2022-07-26T10:41:40;59.35;;;56.10;;
16856;SDS011;8544;51.312;12.276;2022-07-26T10:47:00;55.10;;;52.10;;
16856;SDS011;8544;51.312;12.276;2022-07-26T10:49:38;72.80;;;68.72;;
16856;SDS011;8544;51.312;12.276;2022-07-26T10:52:08;60.60;;;57.30;;
16856;SDS011;8544;51.312;12.276;2022-07-26T10:57:35;44.97;;;42.50;;
16856;SDS011;8544;51.312;12.276;2022-07-26T11:00:24;23.92;;;22.73;;
16856;SDS011;8544;51.312;12.276;2022-07-26T11:02:54;39.85;;;37.53;;
16856;SDS011;8544;51.312;12.276;2022-07-26T11:05:27;20.35;;;19.27;;
16856;SDS011;8544;51.312;12.276;2022-07-26T11:07:58;15.93;;;15.23;;
16856;SDS011;8544;51.312;12.276;2022-07-26T11:10:31;16.25;;;15.45;;
16856;SDS011;8544;51.312;12.276;2022-07-26T11:13:10;19.48;;;18.58;;
16856;SDS011;8544;51.312;12.276;2022-07-26T11:15:51;20.27;;;19.27;;
16856;SDS011;8544;51.312;12.276;2022-07-26T11:18:26;16.80;;;16.02;;
16856;SDS011;8544;51.312;12.276;2022-07-26T11:21:07;25.40;;;24.13;;
16856;SDS011;8544;51.312;12.276;2022-07-26T11:23:36;24.08;;;22.88;;
16856;SDS011;8544;51.312;12.276;2022-07-26T11:26:10;34.53;;;31.55;;
16856;SDS011;8544;51.312;12.276;2022-07-26T11:31:37;49.85;;;47.15;;
16856;SDS011;8544;51.312;12.276;2022-07-26T11:34:21;68.95;;;65.22;;
16856;SDS011;8544;51.312;12.276;2022-07-26T11:36:51;71.50;;;67.60;;
16856;SDS011;8544;51.312;12.276;2022-07-26T11:39:21;54.03;;;51.08;;
16856;SDS011;8544;51.312;12.276;2022-07-26T11:41:50;157.90;;;148.85;;
16856;SDS011;8544;51.312;12.276;2022-07-26T11:44:26;106.22;;;100.47;;
16856;SDS011;8544;51.312;12.276;2022-07-26T11:46:57;62.85;;;59.45;;
16856;SDS011;8544;51.312;12.276;2022-07-26T11:49:27;53.67;;;50.78;;
16856;SDS011;8544;51.312;12.276;2022-07-26T11:52:16;88.07;;;83.15;;
16856;SDS011;8544;51.312;12.276;2022-07-26T11:54:51;47.78;;;45.08;;
16856;SDS011;8544;51.312;12.276;2022-07-26T11:57:20;32.97;;;31.27;;
16856;SDS011;8544;51.312;12.276;2022-07-26T11:59:54;26.40;;;25.10;;
16856;SDS011;8544;51.312;12.276;2022-07-26T12:02:24;29.63;;;28.10;;
16856;SDS011;8544;51.312;12.276;2022-07-26T12:07:54;23.25;;;22.13;;
16856;SDS011;8544;51.312;12.276;2022-07-26T12:10:24;18.92;;;18.02;;
16856;SDS011;8544;51.312;12.276;2022-07-26T12:13:05;22.55;;;21.45;;
16856;SDS011;8544;51.312;12.276;2022-07-26T12:15:43;15.82;;;15.13;;
16856;SDS011;8544;51.312;12.276;2022-07-26T12:18:21;18.65;;;17.75;;
16856;SDS011;8544;51.312;12.276;2022-07-26T12:20:57;15.27;;;14.57;;
16856;SDS011;8544;51.312;12.276;2022-07-26T12:23:41;14.43;;;13.82;;
16856;SDS011;8544;51.312;12.276;2022-07-26T12:26:20;15.27;;;14.60;;
16856;SDS011;8544;51.312;12.276;2022-07-26T12:28:49;22.48;;;21.38;;
16856;SDS011;8544;51.312;12.276;2022-07-26T12:31:21;20.13;;;19.15;;
16856;SDS011;8544;51.312;12.276;2022-07-26T12:33:51;21.65;;;20.58;;
16856;SDS011;8544;51.312;12.276;2022-07-26T12:36:20;18.48;;;17.63;;
16856;SDS011;8544;51.312;12.276;2022-07-26T12:38:54;16.60;;;15.82;;
16856;SDS011;8544;51.312;12.276;2022-07-26T12:41:32;17.30;;;16.50;;
16856;SDS011;8544;51.312;12.276;2022-07-26T12:44:01;20.63;;;19.65;;
16856;SDS011;8544;51.312;12.276;2022-07-26T12:46:30;746.65;;;112.80;;
16856;SDS011;8544;51.312;12.276;2022-07-26T12:49:00;433.67;;;74.63;;
16856;SDS011;8544;51.312;12.276;2022-07-26T12:51:29;11.50;;;11.00;;
16856;SDS011;8544;51.312;12.276;2022-07-26T12:53:57;12.98;;;12.40;;
16856;SDS011;8544;51.312;12.276;2022-07-26T12:56:25;12.93;;;12.38;;
16856;SDS011;8544;51.312;12.276;2022-07-26T12:58:53;18.48;;;17.60;;
16856;SDS011;8544;51.312;12.276;2022-07-26T13:01:26;12.13;;;11.63;;
16856;SDS011;8544;51.312;12.276;2022-07-26T13:03:55;14.98;;;14.30;;
16856;SDS011;8544;51.312;12.276;2022-07-26T13:06:25;54.35;;;32.58;;
16856;SDS011;8544;51.312;12.276;2022-07-26T13:08:52;11.32;;;10.82;;
16856;SDS011;8544;51.312;12.276;2022-07-26T13:11:22;102.00;;;30.52;;
16856;SDS011;8544;51.312;12.276;2022-07-26T13:13:50;16.83;;;16.02;;
16856;SDS011;8544;51.312;12.276;2022-07-26T13:16:18;25.70;;;24.42;;
16856;SDS011;8544;51.312;12.276;2022-07-26T13:18:46;26.33;;;24.98;;
16856;SDS011;8544;51.312;12.276;2022-07-26T13:21:14;20.27;;;19.27;;
16856;SDS011;8544;51.312;12.276;2022-07-26T13:23:44;25.73;;;24.42;;
16856;SDS011;8544;51.312;12.276;2022-07-26T13:26:12;24.02;;;22.77;;
16856;SDS011;8544;51.312;12.276;2022-07-26T13:28:41;37.22;;;35.33;;
16856;SDS011;8544;51.312;12.276;2022-07-26T13:31:10;81.93;;;74.18;;
16856;SDS011;8544;51.312;12.276;2022-07-26T13:33:38;624.40;;;105.38;;
16856;SDS011;8544;51.312;12.276;2022-07-26T13:36:06;1810.80;;;292.10;;
16856;SDS011;8544;51.312;12.276;2022-07-26T13:38:34;27.30;;;25.85;;
16856;SDS011;8544;51.312;12.276;2022-07-26T13:41:04;198.23;;;182.48;;
16856;SDS011;8544;51.312;12.276;2022-07-26T13:43:32;317.40;;;113.78;;
16856;SDS011;8544;51.312;12.276;2022-07-26T13:46:01;309.33;;;154.15;;
16856;SDS011;8544;51.312;12.276;2022-07-26T13:48:29;292.92;;;78.70;;
16856;SDS011;8544;51.312;12.276;2022-07-26T13:50:57;1037.80;;;213.90;;
16856;SDS011;8544;51.312;12.276;2022-07-26T13:53:26;7.87;;;7.60;;
16856;SDS011;8544;51.312;12.276;2022-07-26T13:55:55;484.53;;;118.80;;
16856;SDS011;8544;51.312;12.276;2022-07-26T13:58:24;246.33;;;115.00;;
16856;SDS011;8544;51.312;12.276;2022-07-26T14:00:52;11.40;;;10.90;;
16856;SDS011;8544;51.312;12.276;2022-07-26T14:03:20;8.53;;;8.23;;
16856;SDS011;8544;51.312;12.276;2022-07-26T14:05:48;20.67;;;19.17;;
16856;SDS011;8544;51.312;12.276;2022-07-26T14:08:16;4.30;;;4.20;;
16856;SDS011;8544;51.312;12.276;2022-07-26T14:10:44;22.53;;;20.90;;
16856;SDS011;8544;51.312;12.276;2022-07-26T14:13:13;16.40;;;15.60;;
16856;SDS011;8544;51.312;12.276;2022-07-26T14:15:42;81.63;;;28.40;;
16856;SDS011;8544;51.312;12.276;2022-07-26T14:18:10;4.10;;;4.00;;
16856;SDS011;8544;51.312;12.276;2022-07-26T14:20:38;9.80;;;9.37;;
16856;SDS011;8544;51.312;12.276;2022-07-26T14:23:06;30.70;;;29.03;;
16856;SDS011;8544;51.312;12.276;2022-07-26T14:25:35;4.70;;;4.60;;
16856;SDS011;8544;51.312;12.276;2022-07-26T14:28:03;265.33;;;42.33;;
16856;SDS011;8544;51.312;12.276;2022-07-26T14:30:31;7.30;;;7.10;;
16856;SDS011;8544;51.312;12.276;2022-07-26T14:33:02;9.63;;;9.23;;
16856;SDS011;8544;51.312;12.276;2022-07-26T14:35:31;25.85;;;24.52;;
16856;SDS011;8544;51.312;12.276;2022-07-26T14:37:59;14.10;;;13.50;;
16856;SDS011;8544;51.312;12.276;2022-07-26T14:40:27;15.90;;;15.00;;
16856;SDS011;8544;51.312;12.276;2022-07-26T14:42:55;14.57;;;13.90;;
16856;SDS011;8544;51.312;12.276;2022-07-26T14:45:24;34.97;;;33.13;;
16856;SDS011;8544;51.312;12.276;2022-07-26T14:47:52;16.05;;;15.30;;
16856;SDS011;8544;51.312;12.276;2022-07-26T14:50:21;15.88;;;15.13;;
16856;SDS011;8544;51.312;12.276;2022-07-26T14:52:53;87.18;;;78.25;;
16856;SDS011;8544;51.312;12.276;2022-07-26T14:55:21;15.23;;;14.48;;
16856;SDS011;8544;51.312;12.276;2022-07-26T14:57:50;18.27;;;16.95;;
16856;SDS011;8544;51.312;12.276;2022-07-26T15:00:19;15.33;;;14.63;;
16856;SDS011;8544;51.312;12.276;2022-07-26T15:02:47;11.88;;;11.38;;
16856;SDS011;8544;51.312;12.276;2022-07-26T15:05:16;12.13;;;11.57;;